createdAt,value
2018-03-02T00:01:32.968Z,61.09
2018-03-02T00:04:01.364Z,61.28
2018-03-02T00:06:29.697Z,60.97
2018-03-02T00:08:59.905Z,61.50
2018-03-02T00:11:28.977Z,61.42
2018-03-02T00:13:57.772Z,62.09
2018-03-02T00:16:26.181Z,62.19
2018-03-02T00:18:54.512Z,61.80
2018-03-02T00:21:23.976Z,61.84
2018-03-02T00:23:52.926Z,61.68
2018-03-02T00:26:22.125Z,61.84
2018-03-02T00:28:51.284Z,62.01
2018-03-02T00:31:19.650Z,61.96
2018-03-02T00:33:48.008Z,61.81
2018-03-02T00:36:17.604Z,61.95
2018-03-02T00:38:46.504Z,62.38
2018-03-02T00:41:14.872Z,62.68
2018-03-02T00:43:44.099Z,63.12
2018-03-02T00:46:12.445Z,62.97
2018-03-02T00:48:40.769Z,63.03
2018-03-02T00:51:09.153Z,62.95
2018-03-02T00:53:37.465Z,62.52
2018-03-02T00:56:05.788Z,63.15
2018-03-02T00:58:34.622Z,62.78
2018-03-02T01:01:03.198Z,62.50
2018-03-02T01:03:31.789Z,62.76
2018-03-02T01:06:00.843Z,62.35
2018-03-02T01:08:29.365Z,62.12
2018-03-02T01:10:57.828Z,62.45
2018-03-02T01:13:26.180Z,61.77
2018-03-02T01:15:54.572Z,61.62
2018-03-02T01:18:23.445Z,61.24
2018-03-02T01:20:53.211Z,60.81
2018-03-02T01:23:21.576Z,60.89
2018-03-02T01:25:50.484Z,60.69
2018-03-02T01:28:19.263Z,60.54
2018-03-02T01:30:47.960Z,60.18
2018-03-02T01:33:17.042Z,60.69
2018-03-02T01:35:45.682Z,60.42
2018-03-02T01:38:15.110Z,60.26
2018-03-02T01:40:44.381Z,60.33
2018-03-02T01:43:12.787Z,60.77
2018-03-02T01:45:41.108Z,60.47
2018-03-02T01:48:09.932Z,60.74
2018-03-02T01:50:38.462Z,60.32
2018-03-02T01:53:06.800Z,60.18
2018-03-02T01:55:35.145Z,59.88
2018-03-02T01:58:03.461Z,59.88
2018-03-02T02:00:31.851Z,60.13
2018-03-02T02:03:00.163Z,60.21
2018-03-02T02:05:28.480Z,59.95
2018-03-02T02:07:58.602Z,60.48
2018-03-02T02:10:26.957Z,60.13
2018-03-02T02:12:55.272Z,60.28
2018-03-02T02:15:23.659Z,60.25
2018-03-02T02:17:52.582Z,60.33
2018-03-02T02:20:21.674Z,60.40
2018-03-02T02:22:50.670Z,59.88
2018-03-02T02:25:19.317Z,60.40
2018-03-02T02:27:48.528Z,60.54
2018-03-02T02:30:16.880Z,60.52
2018-03-02T02:32:46.059Z,60.47
2018-03-02T02:35:14.629Z,60.53
2018-03-02T02:37:43.781Z,60.97
2018-03-02T02:40:12.684Z,61.11
2018-03-02T02:42:41.793Z,60.57
2018-03-02T02:45:10.584Z,60.83
2018-03-02T02:47:40.020Z,61.08
2018-03-02T02:50:08.398Z,60.73
2018-03-02T02:52:36.728Z,60.99
2018-03-02T02:55:05.189Z,60.78
2018-03-02T02:57:33.937Z,60.91
2018-03-02T03:00:02.348Z,60.93
2018-03-02T03:02:30.936Z,61.14
2018-03-02T03:04:59.537Z,61.24
2018-03-02T03:07:27.892Z,61.13
2018-03-02T03:09:56.832Z,61.24
2018-03-02T03:12:26.040Z,61.01
2018-03-02T03:14:54.552Z,61.44
2018-03-02T03:17:23.314Z,61.14
2018-03-02T03:19:52.266Z,61.38
2018-03-02T03:22:21.691Z,61.29
2018-03-02T03:24:50.156Z,61.49
2018-03-02T03:27:18.541Z,61.14
2018-03-02T03:29:48.410Z,61.20
2018-03-02T03:32:17.105Z,61.54
2018-03-02T03:34:46.557Z,61.61
2018-03-02T03:37:16.474Z,61.40
2018-03-02T03:39:45.300Z,61.56
2018-03-02T03:42:13.646Z,61.50
2018-03-02T03:44:41.969Z,61.20
2018-03-02T03:47:11.083Z,61.33
2018-03-02T03:49:39.494Z,61.97
2018-03-02T03:52:08.144Z,62.24
2018-03-02T03:54:36.496Z,62.07
2018-03-02T03:57:05.600Z,61.89
2018-03-02T03:59:35.422Z,62.09
2018-03-02T04:02:04.060Z,62.35
2018-03-02T04:04:32.371Z,61.85
2018-03-02T04:07:00.729Z,62.54
2018-03-02T04:09:30.024Z,62.00
2018-03-02T04:11:58.889Z,62.30
2018-03-02T04:14:27.243Z,62.38
2018-03-02T04:16:55.756Z,62.94
2018-03-02T04:19:24.984Z,62.93
2018-03-02T04:21:54.517Z,62.92
2018-03-02T04:24:23.503Z,62.96
2018-03-02T04:26:52.200Z,63.04
2018-03-02T04:29:20.762Z,63.22
2018-03-02T04:31:50.072Z,62.86
2018-03-02T04:34:19.028Z,62.50
2018-03-02T04:36:47.757Z,62.44
2018-03-02T04:39:16.412Z,62.48
2018-03-02T04:41:45.379Z,62.67
2018-03-02T04:44:14.621Z,63.02
2018-03-02T04:46:43.773Z,62.87
2018-03-02T04:49:13.024Z,62.96
2018-03-02T04:51:41.346Z,63.21
2018-03-02T04:54:09.664Z,63.33
2018-03-02T04:56:38.016Z,63.02
2018-03-02T04:59:07.084Z,63.16
2018-03-02T05:01:35.404Z,63.14
2018-03-02T05:04:03.784Z,63.39
2018-03-02T05:06:32.539Z,63.51
2018-03-02T05:09:00.868Z,63.25
2018-03-02T05:11:29.232Z,63.21
2018-03-02T05:13:57.560Z,63.12
2018-03-02T05:16:25.881Z,63.01
2018-03-02T05:18:54.314Z,63.36
2018-03-02T05:21:22.633Z,63.05
2018-03-02T05:23:50.958Z,62.56
2018-03-02T05:26:19.620Z,62.90
2018-03-02T05:28:47.950Z,62.81
2018-03-02T05:31:16.293Z,62.85
2018-03-02T05:33:45.264Z,62.57
2018-03-02T05:36:13.599Z,62.83
2018-03-02T05:38:41.917Z,62.99
2018-03-02T05:41:10.284Z,63.18
2018-03-02T05:43:38.614Z,62.94
2018-03-02T05:46:09.197Z,62.67
2018-03-02T05:48:37.504Z,62.77
2018-03-02T05:51:05.832Z,62.72
2018-03-02T05:53:34.372Z,63.02
2018-03-02T05:56:02.696Z,63.15
2018-03-02T05:58:31.060Z,62.99
2018-03-02T06:00:59.478Z,63.07
2018-03-02T06:03:27.796Z,63.13
2018-03-02T06:05:56.148Z,63.21
2018-03-02T06:08:24.473Z,63.00
2018-03-02T06:10:52.795Z,63.21
2018-03-02T06:13:21.156Z,63.31
2018-03-02T06:15:49.481Z,63.06
2018-03-02T06:18:17.796Z,62.83
2018-03-02T06:20:46.160Z,63.33
2018-03-02T06:23:14.479Z,62.82
2018-03-02T06:25:43.349Z,63.12
2018-03-02T06:28:11.883Z,63.79
2018-03-02T06:30:40.430Z,63.29
2018-03-02T06:33:08.753Z,63.55
2018-03-02T06:35:37.404Z,63.45
2018-03-02T06:38:07.003Z,63.24
2018-03-02T06:40:35.448Z,63.85
2018-03-02T06:43:03.769Z,63.33
2018-03-02T06:45:32.113Z,63.42
2018-03-02T06:48:00.974Z,62.82
2018-03-02T06:50:29.320Z,62.71
2018-03-02T06:53:08.856Z,62.84
2018-03-02T06:55:37.752Z,62.65
2018-03-02T06:58:06.140Z,62.42
2018-03-02T07:00:35.428Z,62.45
2018-03-02T07:03:05.168Z,62.34
2018-03-02T07:05:34.489Z,61.74
2018-03-02T07:08:02.841Z,61.44
2018-03-02T07:10:31.935Z,62.18
2018-03-02T07:13:01.116Z,61.67
2018-03-02T07:15:29.649Z,61.74
2018-03-02T07:17:58.016Z,62.26
2018-03-02T07:20:26.357Z,60.84
2018-03-02T07:22:54.681Z,60.28
2018-03-02T07:25:23.065Z,59.84
2018-03-02T07:27:51.497Z,60.57
2018-03-02T07:30:19.824Z,59.95
2018-03-02T07:32:48.188Z,59.89
2018-03-02T07:35:16.533Z,60.42
2018-03-02T07:37:45.508Z,61.17
2018-03-02T07:40:13.837Z,60.45
2018-03-02T07:42:42.156Z,59.59
2018-03-02T07:45:11.163Z,58.58
2018-03-02T07:47:39.485Z,58.95
2018-03-02T07:50:07.804Z,59.10
2018-03-02T07:52:36.151Z,59.22
2018-03-02T07:55:04.524Z,59.94
2018-03-02T07:57:32.836Z,59.22
2018-03-02T08:00:01.751Z,59.21
2018-03-02T08:02:30.132Z,59.62
2018-03-02T08:04:58.457Z,59.92
2018-03-02T08:07:26.778Z,59.43
2018-03-02T08:09:55.152Z,58.77
2018-03-02T08:12:24.471Z,58.77
2018-03-02T08:14:52.785Z,58.18
2018-03-02T08:17:21.205Z,57.40
2018-03-02T08:19:49.528Z,56.77
2018-03-02T08:22:17.848Z,56.79
2018-03-02T08:24:46.523Z,56.17
2018-03-02T08:27:14.844Z,54.45
2018-03-02T08:29:43.924Z,55.32
2018-03-02T08:32:13.465Z,53.55
2018-03-02T08:34:41.795Z,53.50
2018-03-02T08:37:10.313Z,54.04
2018-03-02T08:39:38.870Z,51.89
2018-03-02T08:42:07.485Z,52.13
2018-03-02T08:44:35.812Z,51.95
2018-03-02T08:47:04.188Z,52.15
2018-03-02T08:49:32.521Z,51.20
2018-03-02T08:52:00.843Z,50.21
2018-03-02T08:54:29.660Z,49.89
2018-03-02T08:56:57.980Z,50.95
2018-03-02T08:59:26.304Z,50.90
2018-03-02T09:01:54.686Z,51.79
2018-03-02T09:04:23.007Z,50.54
2018-03-02T09:06:51.340Z,51.80
2018-03-02T09:09:19.727Z,51.01
2018-03-02T09:11:48.058Z,50.36
2018-03-02T09:14:16.376Z,50.17
2018-03-02T09:16:45.040Z,48.95
2018-03-02T09:19:13.360Z,48.95
2018-03-02T09:21:41.690Z,49.43
2018-03-02T09:24:10.088Z,46.92
2018-03-02T09:26:38.407Z,44.91
2018-03-02T09:29:06.717Z,43.93
2018-03-02T09:31:35.076Z,45.35
2018-03-02T09:34:03.720Z,46.51
2018-03-02T09:36:32.064Z,44.71
2018-03-02T09:39:00.608Z,43.08
2018-03-02T09:41:29.380Z,41.20
2018-03-02T09:43:57.748Z,38.70
2018-03-02T09:46:26.056Z,39.73
2018-03-02T09:48:54.429Z,38.64
2018-03-02T09:51:23.558Z,39.25
2018-03-02T09:53:51.873Z,41.61
2018-03-02T09:56:20.248Z,39.31
2018-03-02T09:58:48.556Z,37.72
2018-03-02T10:01:16.865Z,37.16
2018-03-02T10:03:45.713Z,38.74
2018-03-02T10:06:14.076Z,39.71
2018-03-02T10:08:42.680Z,39.82
2018-03-02T10:11:10.999Z,39.21
2018-03-02T10:13:39.552Z,40.01
2018-03-02T10:16:08.099Z,41.88
2018-03-02T10:18:36.768Z,40.92
2018-03-02T10:21:05.128Z,42.14
2018-03-02T10:23:33.544Z,38.26
2018-03-02T10:26:01.849Z,36.26
2018-03-02T10:28:30.925Z,35.88
2018-03-02T10:30:59.280Z,34.71
2018-03-02T10:33:27.694Z,31.67
2018-03-02T10:35:56.572Z,30.09
2018-03-02T10:38:24.884Z,27.09
2018-03-02T10:40:53.193Z,25.40
2018-03-02T10:43:21.821Z,24.22
2018-03-02T10:45:51.882Z,23.29
2018-03-02T10:48:20.452Z,26.70
2018-03-02T10:50:49.134Z,28.73
2018-03-02T10:53:17.723Z,28.11
2018-03-02T10:55:46.048Z,30.63
2018-03-02T10:58:14.872Z,31.51
2018-03-02T11:00:48.680Z,31.36
2018-03-02T11:03:22.407Z,27.33
2018-03-02T11:05:50.716Z,28.54
2018-03-02T11:08:19.030Z,28.67
2018-03-02T11:10:47.396Z,27.68
2018-03-02T11:13:16.984Z,26.52
2018-03-02T11:15:45.296Z,28.31
2018-03-02T11:18:14.376Z,27.51
2018-03-02T11:20:42.717Z,27.68
2018-03-02T11:23:11.034Z,28.27
2018-03-02T11:25:41.556Z,27.46
2018-03-02T11:28:09.913Z,25.56
2018-03-02T11:30:38.219Z,26.00
2018-03-02T11:33:06.573Z,26.39
2018-03-02T11:35:35.597Z,27.39
2018-03-02T11:38:03.922Z,29.31
2018-03-02T11:40:32.831Z,29.73
2018-03-02T11:43:02.044Z,29.38
2018-03-02T11:45:31.149Z,27.76
2018-03-02T11:48:00.956Z,30.59
2018-03-02T11:50:29.944Z,30.28
2018-03-02T11:52:59.244Z,29.06
2018-03-02T11:55:28.348Z,28.82
2018-03-02T11:57:57.219Z,28.40
2018-03-02T12:00:25.587Z,28.12
2018-03-02T12:02:54.216Z,30.99
2018-03-02T12:05:23.263Z,32.38
2018-03-02T12:07:52.333Z,34.10
2018-03-02T12:10:21.177Z,33.71
2018-03-02T12:12:49.884Z,33.17
2018-03-02T12:15:18.954Z,35.85
2018-03-02T12:17:47.256Z,36.72
2018-03-02T12:20:16.392Z,36.75
2018-03-02T12:22:44.744Z,35.98
2018-03-02T12:25:13.037Z,34.20
2018-03-02T12:27:42.673Z,36.67
2018-03-02T12:30:10.979Z,37.46
2018-03-02T12:32:39.287Z,38.31
2018-03-02T12:35:08.705Z,38.26
2018-03-02T12:37:37.009Z,38.97
2018-03-02T12:40:05.536Z,39.94
2018-03-02T12:42:34.544Z,40.85
2018-03-02T12:45:03.012Z,41.90
2018-03-02T12:47:32.118Z,40.96
2018-03-02T12:50:01.092Z,40.63
2018-03-02T12:52:29.456Z,39.55
2018-03-02T12:54:58.461Z,39.95
2018-03-02T12:57:26.776Z,39.57
2018-03-02T12:59:55.447Z,38.77
2018-03-02T13:02:23.811Z,38.63
2018-03-02T13:04:52.918Z,39.75
2018-03-02T13:07:21.234Z,38.91
2018-03-02T13:09:50.011Z,40.24
2018-03-02T13:12:18.402Z,39.80
2018-03-02T13:14:46.820Z,40.23
2018-03-02T13:17:15.250Z,38.98
2018-03-02T13:19:43.564Z,39.95
2018-03-02T13:22:30.013Z,41.01
2018-03-02T13:24:58.423Z,39.94
2018-03-02T13:27:44.661Z,37.94
2018-03-02T13:30:13.763Z,38.19
2018-03-02T13:32:44.002Z,37.03
2018-03-02T13:35:12.417Z,38.36
2018-03-02T13:37:40.932Z,38.20
2018-03-02T13:40:26.845Z,38.24
2018-03-02T13:42:55.733Z,38.75
2018-03-02T13:45:24.612Z,38.69
2018-03-02T14:01:33.776Z,38.86
2018-03-02T14:04:19.882Z,38.81
2018-03-02T14:06:48.310Z,38.85
2018-03-02T14:09:17.616Z,38.72
2018-03-02T14:11:46.488Z,39.22
2018-03-02T14:14:15.299Z,38.20
2018-03-02T14:16:43.575Z,38.66
2018-03-02T14:19:11.888Z,38.60
2018-03-02T14:21:40.705Z,37.75
2018-03-02T14:24:09.227Z,37.98
2018-03-02T14:26:38.415Z,37.47
2018-03-02T14:29:07.071Z,37.73
2018-03-02T14:31:35.941Z,38.53
2018-03-02T14:34:04.397Z,38.74
2018-03-02T14:36:32.700Z,38.73
2018-03-02T14:39:01.044Z,38.67
2018-03-02T14:41:29.352Z,40.46
2018-03-02T14:43:57.662Z,40.36
2018-03-02T14:46:26.800Z,41.10
2018-03-02T14:48:55.556Z,41.09
2018-03-02T14:51:24.952Z,39.62
2018-03-02T14:53:53.421Z,39.04
2018-03-02T14:56:21.838Z,38.73
2018-03-02T14:58:50.384Z,39.35
2018-03-02T15:01:18.724Z,39.81
2018-03-02T15:03:47.372Z,40.28
2018-03-02T15:06:21.678Z,40.43
2018-03-02T15:08:49.997Z,41.17
2018-03-02T15:11:18.352Z,41.93
2018-03-02T15:13:47.512Z,41.58
2018-03-02T15:16:15.887Z,41.21
2018-03-02T15:18:44.244Z,40.90
2018-03-02T15:21:13.036Z,40.81
2018-03-02T15:23:41.412Z,40.85
2018-03-02T15:26:09.717Z,41.05
2018-03-02T15:28:38.985Z,41.23
2018-03-02T15:31:07.872Z,41.10
2018-03-02T15:33:36.697Z,40.57
2018-03-02T15:36:05.509Z,41.14
2018-03-02T15:38:33.945Z,42.02
2018-03-02T15:41:02.926Z,42.63
2018-03-02T15:43:32.832Z,42.75
2018-03-02T15:46:01.598Z,41.76
2018-03-02T15:48:29.904Z,41.03
2018-03-02T15:50:58.266Z,41.16
2018-03-02T15:53:26.656Z,41.17
2018-03-02T15:55:54.965Z,42.16
2018-03-02T15:58:23.316Z,41.86
2018-03-02T16:00:52.222Z,41.50
2018-03-02T16:03:20.568Z,41.51
2018-03-02T16:05:48.913Z,41.89
2018-03-02T16:08:17.249Z,41.86
2018-03-02T16:10:45.567Z,41.85
2018-03-02T16:13:13.916Z,42.54
2018-03-02T16:15:42.324Z,42.53
2018-03-02T16:18:10.998Z,43.20
2018-03-02T16:20:40.651Z,44.35
2018-03-02T16:23:09.039Z,44.52
2018-03-02T16:25:38.057Z,45.18
2018-03-02T16:28:06.392Z,45.40
2018-03-02T16:30:35.008Z,45.59
2018-03-02T16:33:03.407Z,45.59
2018-03-02T16:35:31.872Z,45.43
2018-03-02T16:38:00.224Z,45.60
2018-03-02T16:40:28.581Z,45.61
2018-03-02T16:42:58.123Z,45.74
2018-03-02T16:45:27.016Z,45.89
2018-03-02T16:47:55.377Z,45.46
2018-03-02T16:50:24.315Z,45.51
2018-03-02T16:52:53.857Z,45.21
2018-03-02T16:55:22.173Z,45.71
2018-03-02T16:57:50.625Z,45.85
2018-03-02T17:00:19.791Z,45.63
2018-03-02T17:02:48.516Z,45.77
2018-03-02T17:05:17.438Z,45.28
2018-03-02T17:07:47.284Z,45.54
2018-03-02T17:10:18.032Z,45.68
2018-03-02T17:12:47.018Z,45.80
2018-03-02T17:15:15.389Z,45.89
2018-03-02T17:17:43.888Z,45.85
2018-03-02T17:20:12.700Z,45.87
2018-03-02T17:22:41.448Z,46.11
2018-03-02T17:25:10.491Z,45.86
2018-03-02T17:27:39.060Z,45.74
2018-03-02T17:30:07.440Z,45.94
2018-03-02T17:32:36.021Z,45.87
2018-03-02T17:35:05.581Z,46.36
2018-03-02T17:37:34.028Z,46.22
2018-03-02T17:40:02.377Z,51.59
2018-03-02T17:42:31.245Z,53.00
2018-03-02T17:44:59.693Z,52.69
2018-03-02T17:47:28.011Z,53.47
2018-03-02T17:49:56.335Z,53.53
2018-03-02T17:52:24.676Z,53.19
2018-03-02T17:54:52.983Z,53.61
2018-03-02T17:57:21.984Z,55.15
2018-03-02T17:59:51.207Z,55.39
2018-03-02T18:02:19.540Z,55.44
2018-03-02T18:04:48.247Z,55.88
2018-03-02T18:07:16.945Z,55.76
2018-03-02T18:09:45.328Z,55.52
2018-03-02T18:12:14.169Z,55.59
2018-03-02T18:14:43.113Z,56.45
2018-03-02T18:17:11.509Z,57.84
2018-03-02T18:19:40.430Z,60.24
2018-03-02T18:22:08.832Z,61.55
2018-03-02T18:24:37.199Z,63.27
2018-03-02T18:27:06.277Z,63.75
2018-03-02T18:29:34.597Z,65.12
2018-03-02T18:32:03.644Z,65.63
2018-03-02T18:34:31.993Z,65.88
2018-03-02T18:37:00.308Z,66.19
2018-03-02T18:39:30.013Z,66.91
2018-03-02T18:42:00.003Z,67.45
2018-03-02T18:44:29.021Z,67.43
2018-03-02T18:46:57.552Z,67.54
2018-03-02T18:49:25.892Z,67.15
2018-03-02T18:51:55.465Z,66.94
2018-03-02T18:54:24.579Z,66.95
2018-03-02T18:56:53.685Z,67.13
2018-03-02T18:59:22.764Z,67.26
2018-03-02T19:01:51.085Z,67.59
2018-03-02T19:04:20.140Z,67.94
2018-03-02T19:06:48.624Z,68.48
2018-03-02T19:09:17.540Z,68.55
2018-03-02T19:11:45.931Z,68.70
2018-03-02T19:14:14.464Z,69.30
2018-03-02T19:16:42.848Z,69.89
2018-03-02T19:19:11.656Z,70.08
2018-03-02T19:21:40.028Z,70.50
2018-03-02T19:24:08.700Z,70.63
2018-03-02T19:26:37.015Z,71.28
2018-03-02T19:29:05.376Z,72.11
2018-03-02T19:31:33.748Z,72.52
2018-03-02T19:34:02.057Z,72.72
2018-03-02T19:36:30.396Z,73.09
2018-03-02T19:38:59.280Z,73.96
2018-03-02T19:41:28.492Z,74.89
2018-03-02T19:43:57.616Z,75.57
2018-03-02T19:46:26.188Z,76.61
2018-03-02T19:48:57.343Z,76.95
2018-03-02T19:51:25.704Z,77.57
2018-03-02T19:53:55.205Z,77.80
2018-03-02T19:56:24.672Z,78.45
2018-03-02T19:58:53.057Z,78.47
2018-03-02T20:01:22.004Z,78.69
2018-03-02T20:03:50.596Z,78.93
2018-03-02T20:06:19.171Z,78.99
2018-03-02T20:08:47.868Z,79.25
2018-03-02T20:11:16.747Z,79.82
2018-03-02T20:13:45.280Z,80.09
2018-03-02T20:16:13.603Z,80.39
2018-03-02T20:18:42.471Z,80.83
2018-03-02T20:21:10.864Z,80.97
2018-03-02T20:23:39.989Z,80.81
2018-03-02T20:26:08.360Z,80.48
2018-03-02T20:28:37.898Z,80.42
2018-03-02T20:31:07.043Z,80.28
2018-03-02T20:33:35.402Z,80.21
2018-03-02T20:36:03.779Z,80.61
2018-03-02T20:38:32.750Z,80.06
2018-03-02T20:41:01.213Z,80.27
2018-03-02T20:43:30.152Z,79.71
2018-03-02T20:45:58.572Z,80.71
2018-03-02T20:48:28.282Z,81.17
2018-03-02T20:50:56.724Z,81.57
2018-03-02T20:53:25.436Z,81.63
2018-03-02T20:55:53.883Z,82.43
2018-03-02T20:58:22.280Z,82.38
2018-03-02T21:00:51.608Z,82.76
2018-03-02T21:03:20.009Z,83.10
2018-03-02T21:05:48.433Z,82.17
2018-03-02T21:08:18.324Z,81.94
2018-03-02T21:10:47.137Z,82.42
2018-03-02T21:13:17.056Z,82.97
2018-03-02T21:15:45.672Z,83.31
2018-03-02T21:18:15.244Z,83.75
2018-03-02T21:20:44.355Z,83.53
2018-03-02T21:23:14.948Z,83.43
2018-03-02T21:25:43.298Z,83.68
2018-03-02T21:28:11.740Z,83.83
2018-03-02T21:30:40.613Z,83.90
2018-03-02T21:33:09.142Z,84.16
2018-03-02T21:35:38.228Z,84.01
2018-03-02T21:38:06.585Z,83.54
2018-03-02T21:40:34.907Z,83.07
2018-03-02T21:43:04.438Z,83.59
2018-03-02T21:45:32.904Z,83.69
2018-03-02T21:48:01.242Z,83.74
2018-03-02T21:50:29.621Z,84.04
2018-03-02T21:52:57.952Z,84.31
2018-03-02T21:55:26.323Z,84.12
2018-03-02T21:57:55.202Z,83.83
2018-03-02T22:00:23.673Z,83.86
2018-03-02T22:02:52.576Z,84.17
2018-03-02T22:05:20.912Z,84.01
2018-03-02T22:07:49.297Z,84.29
2018-03-02T22:10:17.752Z,84.39
2018-03-02T22:12:46.842Z,84.49
2018-03-02T22:15:15.213Z,84.29
2018-03-02T22:17:43.829Z,84.31
2018-03-02T22:20:12.196Z,83.90
2018-03-02T22:22:41.127Z,83.98
2018-03-02T22:25:09.516Z,83.86
2018-03-02T22:27:37.857Z,83.38
2018-03-02T22:30:06.188Z,83.90
2018-03-02T22:32:34.999Z,83.99
2018-03-02T22:35:03.329Z,83.79
2018-03-02T22:37:31.657Z,83.59
2018-03-02T22:40:00.057Z,83.55
2018-03-02T22:42:28.385Z,83.63
2018-03-02T22:44:56.712Z,83.38
2018-03-02T22:47:26.336Z,83.09
2018-03-02T22:49:54.736Z,83.17
2018-03-02T22:52:24.502Z,83.62
2018-03-02T22:54:52.931Z,83.46
2018-03-02T22:57:21.976Z,82.77
2018-03-02T22:59:50.960Z,82.91
2018-03-02T23:02:19.555Z,82.82
2018-03-02T23:04:48.721Z,82.71
2018-03-02T23:07:17.284Z,83.41
2018-03-02T23:09:46.318Z,83.28
2018-03-02T23:12:14.663Z,82.69
2018-03-02T23:14:48.723Z,82.74
2018-03-02T23:17:17.264Z,82.78
2018-03-02T23:19:46.069Z,82.95
2018-03-02T23:22:15.109Z,83.42
2018-03-02T23:24:43.447Z,83.40
2018-03-02T23:27:12.225Z,83.36
2018-03-02T23:29:40.632Z,83.31
2018-03-02T23:32:09.200Z,83.44
2018-03-02T23:34:39.820Z,83.35
2018-03-02T23:37:09.613Z,83.32
2018-03-02T23:39:39.672Z,83.52
2018-03-02T23:42:09.823Z,83.49
2018-03-02T23:44:39.448Z,83.52
2018-03-02T23:47:09.292Z,83.23
2018-03-02T23:49:39.153Z,83.33
2018-03-02T23:52:07.596Z,83.63
2018-03-02T23:54:36.000Z,83.73
2018-03-02T23:57:04.329Z,84.37
2018-03-02T23:59:32.692Z,84.95
